LiveATC.Net - Listen to live air traffic control over the Internet! Contact LiveATC.net for advertising information


ICAO: KAFW  IATA: AFW   Airport: Fort Worth Alliance Airport
City: Fort Worth   State/Province: Texas
Country: United States   Continent: North America
KAFW METAR Weather: KAFW 310453Z 35005KT 10SM CLR 15/08 A3018 RMK AO2 SLP213 T01500083
KAFW Flight Activity (FlightAware)
KAFW Airport Info   (AirNav) (iFlightPlanner)
KAFW Tower
Feed Status: DOWN
Last heard on: 2014-10-28 16:52:02 (2 days 12 hours 48 minutes ago)
KAFW Tower Audio Archives
FacilityFrequency
52F Northwest Regional122.900
Alliance Tower135.150


NOTICE

Unauthorized use prohibited. See LiveATC.net Terms of Service


Find LiveATC Audio Streams


Airport/ARTCC Code

Frequency
(e.g., 124.400, 128.75)
Site-wide search

Browse LiveATC Feeds
LiveATC Coverage Map
Top 50 LiveATC Feeds
Bad Weather Areas

LiveATC FAQ
Offer a LiveATC Feed
Contact LiveATC.net
Press Inquiries

LiveATC on iPhone
LiveATC on Android

LiveATC Mobile
(Mobile browser)

ATC Audio Archives
Interesting Recordings

LiveATC Forums


Home Page
About LiveATC.net
Make a Donation
LiveATC Bookstore

Terms of Use
Privacy Policy

ATC/Radar Sites
U.S. ARTCC Freqs
Canadian Air Freqs

AIRMETs/SIGMETs

FAA Airport Status
Nat'l Airspace Status
Arrival Demand Charts


Server Software By:
Icecast.org
Liquidsoap

Please make a donation to help us keep growing!